Time;durP1;ratioP1;P1;durP2;ratioP2;P2;SDS_P1;SDS_P2;PMS_P1;PMS_P2;Temp;Humidity;BMP_temperature;BMP_pressure;BME280_temperature;BME280_humidity;BME280_pressure;Samples;Min_cycle;Max_cycle;Signal;HPM_P1;HPM_P2
2023/02/16 00:01:13;;;;;;;75.28;46.15;;;;;;;;;;5036290;28;20041;-66
2023/02/16 00:03:39;;;;;;;76.10;47.40;;;;;;;;;;5053838;28;20037;-66
2023/02/16 00:06:05;;;;;;;69.72;46.55;;;;;;;;;;5053661;28;20036;-66
2023/02/16 00:08:30;;;;;;;77.45;46.63;;;;;;;;;;5053703;28;20041;-66
2023/02/16 00:13:43;;;;;;;73.85;47.50;;;;;;;;;;5053667;28;20075;-66
2023/02/16 00:16:16;;;;;;;72.53;46.00;;;;;;;;;;5053796;28;20033;-66
2023/02/16 00:18:41;;;;;;;73.43;46.15;;;;;;;;;;5052998;28;20067;-64
2023/02/16 00:21:06;;;;;;;74.30;47.20;;;;;;;;;;5027020;28;20504;-64
2023/02/16 00:23:32;;;;;;;74.80;46.60;;;;;;;;;;5033575;28;20068;-64
2023/02/16 00:25:57;;;;;;;74.25;46.35;;;;;;;;;;5015270;28;20052;-64
2023/02/16 00:28:22;;;;;;;73.35;43.72;;;;;;;;;;5032991;28;20033;-64
2023/02/16 00:30:49;;;;;;;71.00;44.03;;;;;;;;;;5015314;28;20110;-64
2023/02/16 00:33:18;;;;;;;73.35;46.15;;;;;;;;;;5032840;28;20033;-66
2023/02/16 00:35:44;;;;;;;72.03;43.85;;;;;;;;;;5032792;28;20045;-65
2023/02/16 00:38:10;;;;;;;73.03;44.40;;;;;;;;;;5032556;28;20061;-65
2023/02/16 00:40:35;;;;;;;70.43;43.30;;;;;;;;;;5035029;28;20099;-65
2023/02/16 00:43:01;;;;;;;68.20;43.88;;;;;;;;;;5034698;28;20030;-65
2023/02/16 00:45:26;;;;;;;66.78;43.65;;;;;;;;;;5033739;28;20030;-65
2023/02/16 00:47:52;;;;;;;68.82;43.95;;;;;;;;;;5033124;28;20038;-65
2023/02/16 00:50:23;;;;;;;71.30;43.70;;;;;;;;;;5032731;28;20553;-65
2023/02/16 00:52:48;;;;;;;67.93;42.88;;;;;;;;;;5032846;28;20410;-65
2023/02/16 00:55:15;;;;;;;70.65;43.80;;;;;;;;;;5031956;28;20110;-65
2023/02/16 00:57:42;;;;;;;68.00;43.17;;;;;;;;;;5031743;28;20029;-65
2023/02/16 01:00:34;;;;;;;71.95;43.47;;;;;;;;;;5031744;28;20056;-65
2023/02/16 01:03:01;;;;;;;65.55;40.70;;;;;;;;;;5010368;28;20042;-65
2023/02/16 01:05:27;;;;;;;68.70;41.50;;;;;;;;;;5015119;28;20068;-65
2023/02/16 01:13:22;;;;;;;64.72;40.35;;;;;;;;;;5032556;28;20038;-64
2023/02/16 01:15:48;;;;;;;64.32;40.95;;;;;;;;;;5015000;28;20456;-64
2023/02/16 01:18:14;;;;;;;72.68;42.80;;;;;;;;;;5015123;28;20065;-64
2023/02/16 01:20:39;;;;;;;71.28;43.55;;;;;;;;;;5036891;28;20438;-65
2023/02/16 01:23:07;;;;;;;69.30;43.28;;;;;;;;;;5033974;28;20061;-64
2023/02/16 01:25:32;;;;;;;67.63;42.03;;;;;;;;;;5034168;28;20405;-64
2023/02/16 01:27:58;;;;;;;68.28;41.80;;;;;;;;;;5051672;28;20051;-65
2023/02/16 01:30:23;;;;;;;66.82;40.88;;;;;;;;;;5051495;28;20112;-65
2023/02/16 01:32:52;;;;;;;68.70;42.10;;;;;;;;;;5051251;28;20033;-65
2023/02/16 01:35:22;;;;;;;64.03;40.13;;;;;;;;;;5033883;28;20033;-65
2023/02/16 01:37:48;;;;;;;66.78;41.13;;;;;;;;;;5054105;28;20039;-65
2023/02/16 01:40:37;;;;;;;65.57;41.10;;;;;;;;;;5020175;28;20028;-65
2023/02/16 01:43:11;;;;;;;66.25;40.97;;;;;;;;;;5036330;28;20039;-65
2023/02/16 01:45:39;;;;;;;65.53;40.97;;;;;;;;;;5053502;28;20453;-65
2023/02/16 01:48:06;;;;;;;67.45;40.40;;;;;;;;;;5053615;28;20032;-65
2023/02/16 01:50:51;;;;;;;66.50;41.20;;;;;;;;;;5035642;28;20040;-65
2023/02/16 01:53:53;;;;;;;70.00;42.03;;;;;;;;;;5053434;28;20021;-66
2023/02/16 01:56:27;;;;;;;66.40;39.60;;;;;;;;;;4937451;29;20093;-66
2023/02/16 01:59:25;;;;;;;66.22;41.33;;;;;;;;;;4937128;29;20407;-66
2023/02/16 02:01:56;;;;;;;65.90;40.92;;;;;;;;;;4911682;29;20039;-66
2023/02/16 02:07:14;;;;;;;63.75;40.58;;;;;;;;;;5035013;28;20124;-65
2023/02/16 02:09:43;;;;;;;66.78;39.53;;;;;;;;;;5033797;28;20028;-65
2023/02/16 02:12:28;;;;;;;64.90;39.30;;;;;;;;;;5033314;28;20058;-65
2023/02/16 02:14:55;;;;;;;65.32;40.85;;;;;;;;;;5033694;28;20029;-65
2023/02/16 02:17:22;;;;;;;58.38;38.60;;;;;;;;;;5033461;28;20021;-67
2023/02/16 02:20:06;;;;;;;59.10;38.10;;;;;;;;;;5033437;28;20397;-66
2023/02/16 02:25:26;;;;;;;61.72;38.45;;;;;;;;;;5012705;28;20084;-65
2023/02/16 02:28:08;;;;;;;64.50;38.72;;;;;;;;;;5031351;28;20036;-65
2023/02/16 02:30:36;;;;;;;63.65;39.65;;;;;;;;;;5013248;28;20036;-65
2023/02/16 02:33:15;;;;;;;60.85;37.88;;;;;;;;;;5012454;28;20033;-65
2023/02/16 02:35:55;;;;;;;66.03;39.45;;;;;;;;;;4997193;28;20540;-65
2023/02/16 02:38:31;;;;;;;61.90;38.40;;;;;;;;;;5031961;28;20033;-66
2023/02/16 02:41:16;;;;;;;64.85;41.25;;;;;;;;;;5014916;28;20030;-66
2023/02/16 02:43:56;;;;;;;64.85;40.08;;;;;;;;;;5012190;28;20037;-66
2023/02/16 02:46:24;;;;;;;65.40;39.40;;;;;;;;;;4996732;28;20033;-65
2023/02/16 02:48:50;;;;;;;67.22;39.15;;;;;;;;;;5012249;28;20079;-63
2023/02/16 02:51:28;;;;;;;63.95;39.65;;;;;;;;;;5013268;28;20493;-63
2023/02/16 03:02:14;;;;;;;62.05;39.50;;;;;;;;;;5030945;28;20499;-64
2023/02/16 03:04:40;;;;;;;61.70;39.90;;;;;;;;;;5030972;28;20034;-64
2023/02/16 03:07:06;;;;;;;63.53;38.78;;;;;;;;;;5031065;28;20037;-64
2023/02/16 03:09:32;;;;;;;63.67;38.78;;;;;;;;;;5030856;28;20064;-64
2023/02/16 03:14:46;;;;;;;60.95;38.22;;;;;;;;;;5030946;28;20042;-64
2023/02/16 03:31:06;;;;;;;64.50;39.15;;;;;;;;;;5035511;28;20033;-65
2023/02/16 03:33:31;;;;;;;65.00;38.33;;;;;;;;;;5017096;28;20037;-64
2023/02/16 03:35:57;;;;;;;66.88;39.03;;;;;;;;;;5034762;28;20037;-64
2023/02/16 03:38:22;;;;;;;62.50;38.92;;;;;;;;;;5034864;28;20037;-63
2023/02/16 03:40:49;;;;;;;62.30;38.55;;;;;;;;;;5035141;28;20037;-61
2023/02/16 03:43:14;;;;;;;63.22;39.28;;;;;;;;;;5034299;28;20056;-61
2023/02/16 03:45:40;;;;;;;68.40;40.17;;;;;;;;;;5033466;28;20037;-61
2023/02/16 03:48:07;;;;;;;66.05;39.75;;;;;;;;;;5033615;28;20464;-61
2023/02/16 03:50:32;;;;;;;66.43;39.47;;;;;;;;;;5016338;28;20505;-61
2023/02/16 03:53:08;;;;;;;73.97;41.92;;;;;;;;;;5033808;28;20033;-61
2023/02/16 03:55:33;;;;;;;66.43;39.08;;;;;;;;;;5033241;28;20041;-61
2023/02/16 03:58:08;;;;;;;65.40;40.30;;;;;;;;;;5035035;28;20026;-61
2023/02/16 04:00:34;;;;;;;65.43;41.38;;;;;;;;;;5035142;28;20040;-61
2023/02/16 04:03:01;;;;;;;63.08;39.38;;;;;;;;;;5034981;28;20029;-61
2023/02/16 04:05:26;;;;;;;61.58;37.78;;;;;;;;;;5034950;28;20087;-61
2023/02/16 04:07:54;;;;;;;66.95;38.53;;;;;;;;;;5017679;28;20128;-61
2023/02/16 04:10:19;;;;;;;63.47;37.80;;;;;;;;;;5035376;28;20112;-61
2023/02/16 04:12:45;;;;;;;63.60;38.38;;;;;;;;;;5035580;28;20415;-61
2023/02/16 04:15:15;;;;;;;62.00;36.63;;;;;;;;;;5035724;28;20026;-62
2023/02/16 04:17:42;;;;;;;62.88;36.75;;;;;;;;;;5035331;28;20029;-62
2023/02/16 04:20:10;;;;;;;63.47;37.15;;;;;;;;;;5017718;28;20445;-62
2023/02/16 04:22:35;;;;;;;62.08;37.58;;;;;;;;;;5035058;28;20056;-61
2023/02/16 04:25:00;;;;;;;62.05;37.92;;;;;;;;;;5017466;28;20146;-61
2023/02/16 04:27:27;;;;;;;61.40;37.67;;;;;;;;;;5034159;28;20038;-61
2023/02/16 04:29:52;;;;;;;65.22;40.75;;;;;;;;;;5034464;28;20040;-61
2023/02/16 04:32:18;;;;;;;68.22;42.00;;;;;;;;;;5034372;28;20025;-61
2023/02/16 04:34:43;;;;;;;66.15;40.15;;;;;;;;;;5039351;28;20053;-61
2023/02/16 04:37:09;;;;;;;66.03;40.15;;;;;;;;;;5054554;28;20021;-62
2023/02/16 04:39:35;;;;;;;64.97;39.13;;;;;;;;;;5036694;28;20033;-62
2023/02/16 04:42:01;;;;;;;62.28;37.47;;;;;;;;;;5020564;28;20036;-62
2023/02/16 04:44:27;;;;;;;65.93;39.85;;;;;;;;;;5036981;28;20529;-64
2023/02/16 04:47:17;;;;;;;57.95;36.53;;;;;;;;;;5078564;23;20046;-61
2023/02/16 04:49:42;;;;;;;58.67;35.97;;;;;;;;;;4969068;28;20051;-65
2023/02/16 04:52:08;;;;;;;61.67;36.58;;;;;;;;;;4955953;29;20090;-65
2023/02/16 04:54:34;;;;;;;57.45;34.90;;;;;;;;;;4955781;29;20035;-66
2023/02/16 04:57:00;;;;;;;60.08;36.03;;;;;;;;;;4956357;29;20019;-65
2023/02/16 04:59:30;;;;;;;60.85;36.83;;;;;;;;;;4956241;29;20067;-66
2023/02/16 05:01:56;;;;;;;62.13;36.72;;;;;;;;;;4956140;29;20046;-65
2023/02/16 05:04:23;;;;;;;60.03;34.80;;;;;;;;;;4956311;29;20476;-65
2023/02/16 05:06:48;;;;;;;55.50;35.58;;;;;;;;;;4938820;29;20042;-65
2023/02/16 05:09:14;;;;;;;65.97;38.80;;;;;;;;;;4956185;29;20031;-65
2023/02/16 05:14:46;;;;;;;59.72;34.83;;;;;;;;;;4956512;29;20043;-65
2023/02/16 05:17:15;;;;;;;62.92;37.70;;;;;;;;;;4957262;29;20106;-66
2023/02/16 05:19:41;;;;;;;66.15;40.50;;;;;;;;;;4957634;29;20043;-66
2023/02/16 05:22:07;;;;;;;59.70;36.70;;;;;;;;;;4957176;29;20423;-66
2023/02/16 05:24:33;;;;;;;66.18;40.10;;;;;;;;;;4957128;29;20035;-66
2023/02/16 05:26:59;;;;;;;56.00;37.28;;;;;;;;;;4957064;29;20054;-66
2023/02/16 05:29:24;;;;;;;58.70;37.67;;;;;;;;;;4939747;29;20102;-66
2023/02/16 05:31:50;;;;;;;59.10;38.58;;;;;;;;;;4939548;29;20031;-66
2023/02/16 05:34:16;;;;;;;56.38;36.00;;;;;;;;;;4956982;29;20427;-65
2023/02/16 05:36:41;;;;;;;57.88;37.00;;;;;;;;;;4957355;29;20015;-66
2023/02/16 05:39:07;;;;;;;59.50;37.03;;;;;;;;;;4940026;29;20034;-66
2023/02/16 05:41:32;;;;;;;59.80;36.33;;;;;;;;;;4956824;29;20471;-66
2023/02/16 05:43:59;;;;;;;53.15;33.75;;;;;;;;;;4939492;29;20039;-66
2023/02/16 05:46:25;;;;;;;54.28;35.50;;;;;;;;;;4956881;29;20049;-65
2023/02/16 05:48:50;;;;;;;54.92;34.63;;;;;;;;;;4968756;28;20056;-65
2023/02/16 05:51:16;;;;;;;56.95;35.30;;;;;;;;;;4959024;28;20031;-66
2023/02/16 05:53:41;;;;;;;56.17;35.28;;;;;;;;;;4958602;28;20462;-66
2023/02/16 05:56:07;;;;;;;78.80;48.78;;;;;;;;;;4975576;28;20443;-65
2023/02/16 05:58:32;;;;;;;74.35;41.25;;;;;;;;;;4976121;28;20019;-65
2023/02/16 06:00:58;;;;;;;93.03;44.45;;;;;;;;;;4976093;28;20362;-64
2023/02/16 06:03:23;;;;;;;78.80;42.65;;;;;;;;;;4976254;28;20114;-64
2023/02/16 06:05:56;;;;;;;93.93;44.08;;;;;;;;;;4958414;28;20670;-64
2023/02/16 06:08:22;;;;;;;75.80;42.10;;;;;;;;;;4958665;28;20088;-64
2023/02/16 06:10:52;;;;;;;71.25;40.50;;;;;;;;;;4975335;28;20034;-64
2023/02/16 06:13:18;;;;;;;73.38;41.95;;;;;;;;;;4975578;28;20041;-64
2023/02/16 06:15:45;;;;;;;67.22;39.40;;;;;;;;;;4975550;28;20034;-70
2023/02/16 06:18:11;;;;;;;70.30;39.80;;;;;;;;;;4975466;28;20073;-69
2023/02/16 06:20:40;;;;;;;60.47;36.83;;;;;;;;;;4975689;28;20106;-67
2023/02/16 06:23:06;;;;;;;60.13;37.63;;;;;;;;;;4975333;28;20035;-67
2023/02/16 06:25:31;;;;;;;59.25;35.30;;;;;;;;;;4975563;28;20038;-65
2023/02/16 06:27:56;;;;;;;59.22;38.00;;;;;;;;;;4958451;28;20537;-64
2023/02/16 06:30:23;;;;;;;62.67;39.03;;;;;;;;;;4975408;28;20031;-64
2023/02/16 06:32:48;;;;;;;60.72;36.30;;;;;;;;;;4958361;28;20027;-63
2023/02/16 06:35:13;;;;;;;60.97;36.30;;;;;;;;;;4975161;28;20037;-63
2023/02/16 06:37:39;;;;;;;63.70;36.83;;;;;;;;;;4958098;28;20125;-64
2023/02/16 06:40:04;;;;;;;63.17;36.85;;;;;;;;;;4975244;28;20029;-64
2023/02/16 06:42:30;;;;;;;56.97;33.70;;;;;;;;;;4974888;28;20027;-64
2023/02/16 06:44:56;;;;;;;60.30;36.80;;;;;;;;;;4974265;28;20031;-63
2023/02/16 06:47:21;;;;;;;61.03;36.55;;;;;;;;;;4974143;28;20113;-64
2023/02/16 06:49:47;;;;;;;59.13;34.92;;;;;;;;;;4973204;28;20047;-64
2023/02/16 06:52:12;;;;;;;67.45;38.20;;;;;;;;;;4972151;28;20031;-64
2023/02/16 06:54:38;;;;;;;60.05;33.58;;;;;;;;;;4955490;28;20050;-64
2023/02/16 06:57:03;;;;;;;63.78;36.45;;;;;;;;;;4973242;28;20054;-63
2023/02/16 06:59:29;;;;;;;76.30;39.17;;;;;;;;;;4973140;28;20539;-63
2023/02/16 07:01:54;;;;;;;72.22;38.70;;;;;;;;;;4972562;28;20034;-63
2023/02/16 07:04:21;;;;;;;83.30;43.10;;;;;;;;;;4955467;28;20110;-63
2023/02/16 07:06:47;;;;;;;72.20;38.63;;;;;;;;;;4955429;28;20030;-63
2023/02/16 07:09:12;;;;;;;68.03;37.03;;;;;;;;;;4972732;28;20037;-63
2023/02/16 07:11:38;;;;;;;67.78;40.85;;;;;;;;;;4973024;28;20030;-63
2023/02/16 07:14:05;;;;;;;63.42;37.55;;;;;;;;;;4974098;28;20018;-63
2023/02/16 07:16:30;;;;;;;64.00;34.10;;;;;;;;;;4974865;28;20027;-63
2023/02/16 07:18:56;;;;;;;60.50;35.08;;;;;;;;;;4957337;28;20045;-63
2023/02/16 07:21:21;;;;;;;62.80;37.85;;;;;;;;;;4974541;28;20074;-63
2023/02/16 07:23:47;;;;;;;68.25;37.85;;;;;;;;;;4974555;28;20386;-63
2023/02/16 07:26:12;;;;;;;68.95;38.47;;;;;;;;;;4974536;28;20026;-63
2023/02/16 07:28:37;;;;;;;75.45;40.08;;;;;;;;;;4974459;28;20077;-63
2023/02/16 07:31:10;;;;;;;58.97;35.65;;;;;;;;;;4974771;28;20035;-63
2023/02/16 07:33:36;;;;;;;60.90;36.08;;;;;;;;;;4974877;28;20031;-63
2023/02/16 07:36:01;;;;;;;109.22;62.78;;;;;;;;;;4957019;28;20443;-63
2023/02/16 07:38:29;;;;;;;91.60;54.33;;;;;;;;;;4974341;28;20031;-63
2023/02/16 07:40:55;;;;;;;88.97;53.25;;;;;;;;;;4974600;28;20030;-63
2023/02/16 07:43:20;;;;;;;95.90;55.67;;;;;;;;;;4974321;28;20562;-63
2023/02/16 07:45:52;;;;;;;73.35;42.40;;;;;;;;;;4971084;23;20065;-62
2023/02/16 07:48:18;;;;;;;75.07;45.50;;;;;;;;;;4974318;28;20030;-63
2023/02/16 07:50:43;;;;;;;73.78;46.00;;;;;;;;;;4956984;28;20014;-63
2023/02/16 07:53:08;;;;;;;64.40;39.40;;;;;;;;;;4974204;28;20035;-63
2023/02/16 07:55:40;;;;;;;61.38;36.60;;;;;;;;;;4974509;28;20022;-63
2023/02/16 07:58:06;;;;;;;57.88;33.03;;;;;;;;;;4974755;28;20486;-63
2023/02/16 08:00:33;;;;;;;50.42;28.90;;;;;;;;;;4956992;28;20106;-63
2023/02/16 08:02:59;;;;;;;41.63;24.83;;;;;;;;;;4974452;28;20062;-63
2023/02/16 08:05:24;;;;;;;57.58;33.65;;;;;;;;;;4974164;28;20069;-63
2023/02/16 08:07:49;;;;;;;54.00;30.70;;;;;;;;;;4975063;28;20039;-63
2023/02/16 08:10:15;;;;;;;40.72;24.30;;;;;;;;;;4977630;28;20035;-63
2023/02/16 08:12:40;;;;;;;41.58;25.67;;;;;;;;;;4977795;28;20483;-63
2023/02/16 08:15:06;;;;;;;44.17;26.20;;;;;;;;;;4977742;28;20047;-63
2023/02/16 08:17:32;;;;;;;51.30;30.27;;;;;;;;;;4977737;28;20077;-63
2023/02/16 08:19:57;;;;;;;37.25;22.27;;;;;;;;;;4977387;28;20019;-63
2023/02/16 08:22:23;;;;;;;39.83;23.10;;;;;;;;;;4977388;28;20034;-63
2023/02/16 08:24:48;;;;;;;36.28;22.55;;;;;;;;;;4977336;28;20114;-63
2023/02/16 08:27:13;;;;;;;37.20;22.23;;;;;;;;;;4977581;28;20098;-63
2023/02/16 08:29:38;;;;;;;40.10;25.63;;;;;;;;;;4977199;28;20423;-63
2023/02/16 08:32:06;;;;;;;38.10;22.05;;;;;;;;;;4977717;28;20126;-63
2023/02/16 08:34:32;;;;;;;35.72;22.15;;;;;;;;;;4977353;28;20042;-64
2023/02/16 08:36:57;;;;;;;37.03;21.00;;;;;;;;;;4977078;28;20482;-64
2023/02/16 08:39:24;;;;;;;34.17;21.30;;;;;;;;;;4977344;28;20034;-64
2023/02/16 08:41:50;;;;;;;35.08;21.85;;;;;;;;;;4959654;28;20023;-64
2023/02/16 08:44:16;;;;;;;45.03;26.70;;;;;;;;;;4959733;28;20058;-63
2023/02/16 08:46:43;;;;;;;36.88;21.70;;;;;;;;;;4976824;28;20088;-63
2023/02/16 08:49:09;;;;;;;36.03;21.02;;;;;;;;;;4976907;28;20537;-64
2023/02/16 08:51:36;;;;;;;32.35;19.17;;;;;;;;;;4976830;28;20118;-63
2023/02/16 08:54:02;;;;;;;36.45;21.20;;;;;;;;;;4977002;28;20039;-63
2023/02/16 08:56:31;;;;;;;34.90;21.13;;;;;;;;;;4977061;28;20056;-64
2023/02/16 08:58:57;;;;;;;38.33;23.50;;;;;;;;;;4977042;28;20085;-63
2023/02/16 09:01:23;;;;;;;33.88;21.15;;;;;;;;;;4976941;28;20463;-63
2023/02/16 09:03:48;;;;;;;30.35;18.98;;;;;;;;;;4977272;28;20056;-61
2023/02/16 09:06:14;;;;;;;35.67;20.00;;;;;;;;;;4978526;28;20048;-61
2023/02/16 09:08:40;;;;;;;28.95;18.40;;;;;;;;;;4978152;28;20434;-61
2023/02/16 09:11:15;;;;;;;31.52;18.15;;;;;;;;;;4976452;28;20486;-61
2023/02/16 09:13:41;;;;;;;28.75;18.00;;;;;;;;;;4976404;28;20034;-61
2023/02/16 09:16:08;;;;;;;29.98;18.90;;;;;;;;;;4976400;28;20106;-61
2023/02/16 09:18:35;;;;;;;28.15;17.20;;;;;;;;;;4976002;28;20089;-61
2023/02/16 09:21:20;;;;;;;27.10;17.63;;;;;;;;;;4976305;28;20061;-61
2023/02/16 09:23:47;;;;;;;31.25;17.40;;;;;;;;;;4958949;28;20043;-61
2023/02/16 09:26:14;;;;;;;28.63;17.23;;;;;;;;;;4976232;28;20039;-61
2023/02/16 09:28:39;;;;;;;27.88;17.35;;;;;;;;;;4976179;28;20066;-61
2023/02/16 09:31:12;;;;;;;23.83;14.07;;;;;;;;;;4976436;28;20066;-61
2023/02/16 09:33:37;;;;;;;27.75;16.85;;;;;;;;;;4976289;28;20056;-61
2023/02/16 09:36:04;;;;;;;32.50;19.48;;;;;;;;;;4976307;28;20150;-61
2023/02/16 09:38:29;;;;;;;23.92;14.88;;;;;;;;;;4976320;28;20573;-61
2023/02/16 09:40:55;;;;;;;28.27;17.40;;;;;;;;;;4975915;28;20117;-61
2023/02/16 09:43:29;;;;;;;26.90;17.40;;;;;;;;;;4975927;28;20039;-61
2023/02/16 09:45:57;;;;;;;28.73;17.38;;;;;;;;;;4975936;28;20039;-61
2023/02/16 09:48:37;;;;;;;26.75;16.50;;;;;;;;;;4975786;28;20039;-61
2023/02/16 09:51:04;;;;;;;29.60;16.40;;;;;;;;;;4975788;28;20475;-61
2023/02/16 09:53:33;;;;;;;25.83;16.30;;;;;;;;;;4975687;28;20557;-61
2023/02/16 09:56:06;;;;;;;23.92;15.65;;;;;;;;;;4958405;28;20027;-61
2023/02/16 09:58:40;;;;;;;28.98;16.48;;;;;;;;;;4975605;28;20037;-61
2023/02/16 10:01:18;;;;;;;24.38;14.60;;;;;;;;;;4976124;28;20030;-61
2023/02/16 10:03:44;;;;;;;24.80;16.40;;;;;;;;;;4975772;28;20031;-61
2023/02/16 10:06:12;;;;;;;28.40;18.33;;;;;;;;;;4975740;28;20038;-61
2023/02/16 10:08:58;;;;;;;27.75;17.58;;;;;;;;;;4958120;28;20035;-61
2023/02/16 10:11:44;;;;;;;32.28;18.75;;;;;;;;;;4957574;28;20047;-61
2023/02/16 10:14:32;;;;;;;26.85;16.73;;;;;;;;;;4975849;28;20426;-61
2023/02/16 10:17:05;;;;;;;26.10;15.77;;;;;;;;;;4975870;28;20042;-61
2023/02/16 10:19:45;;;;;;;27.60;17.00;;;;;;;;;;4975269;28;20037;-61
2023/02/16 10:22:14;;;;;;;26.75;16.05;;;;;;;;;;4975172;28;20386;-61
2023/02/16 10:24:57;;;;;;;26.00;15.68;;;;;;;;;;4958048;28;20031;-61
2023/02/16 10:27:25;;;;;;;25.33;16.02;;;;;;;;;;4975437;28;20067;-61
2023/02/16 10:29:51;;;;;;;21.58;12.98;;;;;;;;;;4975361;28;20121;-61
2023/02/16 10:32:28;;;;;;;23.23;14.25;;;;;;;;;;4974692;28;20067;-61
2023/02/16 10:34:59;;;;;;;23.77;13.95;;;;;;;;;;4957757;28;20035;-61
2023/02/16 10:37:27;;;;;;;24.90;15.98;;;;;;;;;;4975284;28;20059;-61
2023/02/16 10:39:53;;;;;;;27.50;16.55;;;;;;;;;;4975240;28;20038;-61
2023/02/16 10:42:24;;;;;;;29.63;15.38;;;;;;;;;;4974989;28;20031;-61
2023/02/16 10:44:53;;;;;;;18.02;11.93;;;;;;;;;;4957618;28;20471;-61
2023/02/16 10:47:42;;;;;;;25.30;15.32;;;;;;;;;;4957576;28;20042;-61
2023/02/16 10:50:20;;;;;;;22.30;14.57;;;;;;;;;;4973544;28;20042;-61
2023/02/16 10:52:46;;;;;;;23.58;13.50;;;;;;;;;;4957557;28;20042;-61
2023/02/16 10:55:12;;;;;;;21.73;12.00;;;;;;;;;;4957492;28;20031;-61
2023/02/16 10:57:38;;;;;;;21.25;13.93;;;;;;;;;;4974789;28;20029;-61
2023/02/16 11:00:10;;;;;;;25.63;15.93;;;;;;;;;;4975305;28;20027;-61
2023/02/16 11:02:37;;;;;;;25.98;15.52;;;;;;;;;;4974967;28;20464;-63
2023/02/16 11:05:22;;;;;;;21.25;12.50;;;;;;;;;;4957408;28;20105;-63
2023/02/16 11:07:52;;;;;;;21.90;13.50;;;;;;;;;;4974517;28;20053;-61
2023/02/16 11:10:19;;;;;;;23.75;14.13;;;;;;;;;;4974960;28;20018;-61
2023/02/16 11:12:44;;;;;;;22.80;14.23;;;;;;;;;;4974554;28;20081;-61
2023/02/16 11:15:12;;;;;;;16.60;10.20;;;;;;;;;;4974617;28;20019;-61
2023/02/16 11:17:48;;;;;;;26.48;14.30;;;;;;;;;;4975142;28;20034;-61
2023/02/16 11:20:25;;;;;;;22.13;14.43;;;;;;;;;;4974578;28;20114;-61
2023/02/16 11:22:51;;;;;;;19.52;13.00;;;;;;;;;;4957636;28;20070;-61
2023/02/16 11:25:16;;;;;;;22.42;13.43;;;;;;;;;;4974797;28;20078;-61
2023/02/16 11:27:58;;;;;;;18.90;12.50;;;;;;;;;;4974540;28;20031;-61
2023/02/16 11:30:50;;;;;;;17.50;10.93;;;;;;;;;;4957191;28;20125;-61
2023/02/16 11:33:23;;;;;;;22.15;13.50;;;;;;;;;;4972086;28;20133;-61
2023/02/16 11:35:49;;;;;;;22.88;14.25;;;;;;;;;;4974744;28;20467;-61
2023/02/16 11:38:29;;;;;;;20.58;12.07;;;;;;;;;;4974423;28;20034;-61
2023/02/16 11:40:55;;;;;;;19.95;13.00;;;;;;;;;;4974673;28;20031;-61
2023/02/16 11:43:22;;;;;;;23.08;14.40;;;;;;;;;;4977716;28;20062;-61
2023/02/16 11:46:01;;;;;;;22.02;14.27;;;;;;;;;;4977902;28;20390;-61
2023/02/16 11:48:30;;;;;;;22.85;14.18;;;;;;;;;;4978324;28;20122;-61
2023/02/16 11:51:03;;;;;;;21.23;14.07;;;;;;;;;;4960704;28;20041;-61
2023/02/16 11:53:31;;;;;;;24.35;13.75;;;;;;;;;;4978136;28;20455;-61
2023/02/16 11:56:09;;;;;;;24.63;15.82;;;;;;;;;;4977897;28;20062;-61
2023/02/16 11:58:35;;;;;;;20.98;13.38;;;;;;;;;;4960876;28;20460;-61
2023/02/16 12:01:21;;;;;;;22.95;13.02;;;;;;;;;;4977850;28;20034;-61
2023/02/16 12:03:49;;;;;;;20.33;12.40;;;;;;;;;;4960412;28;20035;-61
2023/02/16 12:06:53;;;;;;;21.10;13.93;;;;;;;;;;4977979;28;20364;-61
2023/02/16 12:09:18;;;;;;;22.17;13.40;;;;;;;;;;4937338;29;20494;-61
2023/02/16 12:11:43;;;;;;;19.13;11.90;;;;;;;;;;4937434;29;20036;-61
2023/02/16 12:14:28;;;;;;;23.35;13.52;;;;;;;;;;5008317;23;20054;-60
2023/02/16 12:20:11;;;;;;;17.90;10.98;;;;;;;;;;5019140;23;20063;-63
2023/02/16 12:22:46;;;;;;;20.58;12.35;;;;;;;;;;4977723;28;20038;-64
2023/02/16 12:25:30;;;;;;;18.00;12.18;;;;;;;;;;4977565;28;20031;-65
2023/02/16 12:28:04;;;;;;;21.73;13.10;;;;;;;;;;4977317;28;20042;-65
2023/02/16 12:30:48;;;;;;;19.58;12.00;;;;;;;;;;4977515;28;20041;-65
2023/02/16 12:33:26;;;;;;;23.92;13.98;;;;;;;;;;4977444;28;20530;-65
2023/02/16 12:36:10;;;;;;;21.38;12.23;;;;;;;;;;4977190;28;20031;-65
2023/02/16 12:38:50;;;;;;;22.80;13.95;;;;;;;;;;4977405;28;20035;-65
2023/02/16 12:41:27;;;;;;;21.40;12.90;;;;;;;;;;4959727;28;20053;-65
2023/02/16 12:43:54;;;;;;;18.05;11.60;;;;;;;;;;4960327;28;20041;-65
2023/02/16 12:46:22;;;;;;;20.67;11.30;;;;;;;;;;4960007;28;20503;-65
2023/02/16 12:48:50;;;;;;;23.58;12.85;;;;;;;;;;4976952;28;20090;-65
2023/02/16 12:51:21;;;;;;;22.13;12.98;;;;;;;;;;4977160;28;20030;-65
2023/02/16 12:53:56;;;;;;;22.70;13.25;;;;;;;;;;4976552;28;20466;-63
2023/02/16 12:56:24;;;;;;;14.65;9.38;;;;;;;;;;5000982;23;20053;-64
2023/02/16 12:58:54;;;;;;;18.85;11.18;;;;;;;;;;4994837;28;20038;-63
2023/02/16 13:01:22;;;;;;;18.52;10.25;;;;;;;;;;4979556;28;20049;-63
2023/02/16 13:03:53;;;;;;;18.38;10.40;;;;;;;;;;4996470;28;20030;-63
2023/02/16 13:06:18;;;;;;;24.08;13.52;;;;;;;;;;4996480;28;20031;-63
2023/02/16 13:08:46;;;;;;;23.38;13.95;;;;;;;;;;4996353;28;20045;-63
2023/02/16 13:11:18;;;;;;;23.70;13.50;;;;;;;;;;4995904;28;20049;-63
2023/02/16 13:13:45;;;;;;;22.42;14.43;;;;;;;;;;4978784;28;20153;-63
2023/02/16 13:16:15;;;;;;;25.30;14.38;;;;;;;;;;4978370;28;20394;-63
2023/02/16 13:18:43;;;;;;;21.65;11.95;;;;;;;;;;4996087;28;20112;-63
2023/02/16 13:21:23;;;;;;;24.13;14.85;;;;;;;;;;4978336;28;20501;-63
2023/02/16 13:23:51;;;;;;;20.83;12.73;;;;;;;;;;4996283;28;20034;-63
2023/02/16 13:26:16;;;;;;;23.40;13.68;;;;;;;;;;4978559;28;20042;-63
2023/02/16 13:28:55;;;;;;;21.45;12.77;;;;;;;;;;4995905;28;20033;-63
2023/02/16 13:31:28;;;;;;;19.63;11.45;;;;;;;;;;4978489;28;20056;-63
2023/02/16 13:34:11;;;;;;;25.70;14.40;;;;;;;;;;4995737;28;20459;-60
2023/02/16 13:36:39;;;;;;;23.20;13.68;;;;;;;;;;4995787;28;20492;-62
2023/02/16 13:39:17;;;;;;;22.50;13.75;;;;;;;;;;4995748;28;20035;-63
2023/02/16 13:41:42;;;;;;;22.17;13.25;;;;;;;;;;4995914;28;20030;-63
2023/02/16 13:44:13;;;;;;;21.60;11.88;;;;;;;;;;4978028;28;20435;-63
2023/02/16 13:46:47;;;;;;;19.67;12.43;;;;;;;;;;4995186;28;20038;-63
2023/02/16 13:49:24;;;;;;;23.95;15.32;;;;;;;;;;4995236;28;20034;-63
2023/02/16 13:51:50;;;;;;;22.70;13.93;;;;;;;;;;4978117;28;20454;-63
2023/02/16 13:54:28;;;;;;;21.50;13.05;;;;;;;;;;4995106;28;20084;-63
2023/02/16 13:56:53;;;;;;;19.67;13.18;;;;;;;;;;4995309;28;20049;-63
2023/02/16 13:59:19;;;;;;;17.25;10.15;;;;;;;;;;4995343;28;20026;-63
2023/02/16 14:01:45;;;;;;;20.17;12.90;;;;;;;;;;4995032;28;20457;-62
2023/02/16 14:04:23;;;;;;;17.63;10.07;;;;;;;;;;4977837;28;20030;-63
2023/02/16 14:06:51;;;;;;;22.30;12.95;;;;;;;;;;4995181;28;20446;-63
2023/02/16 14:09:18;;;;;;;14.80;9.18;;;;;;;;;;4995108;28;20038;-63
2023/02/16 14:11:52;;;;;;;23.73;14.30;;;;;;;;;;4994783;28;20397;-63
2023/02/16 14:14:25;;;;;;;23.33;13.60;;;;;;;;;;4995224;28;20173;-63
2023/02/16 14:16:50;;;;;;;23.70;13.52;;;;;;;;;;4995328;28;20126;-63
2023/02/16 14:19:18;;;;;;;21.65;14.00;;;;;;;;;;4977688;28;20054;-63
2023/02/16 14:21:45;;;;;;;21.73;13.65;;;;;;;;;;4993255;28;20050;-60
2023/02/16 14:24:12;;;;;;;20.15;12.88;;;;;;;;;;4994479;28;20025;-60
2023/02/16 14:26:53;;;;;;;20.88;13.20;;;;;;;;;;4994684;28;20030;-63
2023/02/16 14:29:22;;;;;;;23.90;14.68;;;;;;;;;;4994693;28;20471;-63
2023/02/16 14:31:54;;;;;;;24.58;14.57;;;;;;;;;;4994014;28;20062;-63
2023/02/16 14:34:23;;;;;;;24.95;13.93;;;;;;;;;;4994302;28;20393;-63
2023/02/16 14:37:07;;;;;;;20.40;13.20;;;;;;;;;;4994736;28;20030;-64
2023/02/16 14:39:33;;;;;;;22.58;14.23;;;;;;;;;;4994335;28;20070;-63
2023/02/16 14:42:05;;;;;;;21.85;14.15;;;;;;;;;;4994185;28;20073;-64
2023/02/16 14:44:51;;;;;;;27.52;15.38;;;;;;;;;;4976961;28;20109;-63
2023/02/16 14:47:41;;;;;;;22.40;14.75;;;;;;;;;;4976372;28;20101;-63
2023/02/16 14:50:19;;;;;;;23.33;15.40;;;;;;;;;;4946630;28;20041;-64
2023/02/16 14:52:47;;;;;;;26.13;14.70;;;;;;;;;;4993479;28;20498;-64
2023/02/16 14:55:39;;;;;;;23.23;14.30;;;;;;;;;;4994033;28;20022;-63
2023/02/16 14:58:18;;;;;;;24.23;13.90;;;;;;;;;;4989039;28;20533;-64
2023/02/16 15:00:53;;;;;;;24.10;15.55;;;;;;;;;;4992195;28;20018;-63
2023/02/16 15:03:23;;;;;;;26.33;14.75;;;;;;;;;;4991717;28;20092;-63
2023/02/16 15:06:04;;;;;;;26.15;15.45;;;;;;;;;;4992257;28;20041;-63
2023/02/16 15:08:36;;;;;;;28.20;16.25;;;;;;;;;;4990968;28;20049;-63
2023/02/16 15:11:11;;;;;;;24.27;15.52;;;;;;;;;;4991953;28;20526;-63
2023/02/16 15:13:37;;;;;;;27.27;15.43;;;;;;;;;;4993304;28;20050;-63
2023/02/16 15:16:03;;;;;;;30.55;15.57;;;;;;;;;;4993388;28;20466;-63